Time;durP1;ratioP1;P1;durP2;ratioP2;P2;SDS_P1;SDS_P2;PMS_P1;PMS_P2;Temp;Humidity;BMP_temperature;BMP_pressure;BME280_temperature;BME280_humidity;BME280_pressure;Samples;Min_cycle;Max_cycle;Signal;HPM_P1;HPM_P2
2022/05/02 00:02:07;;;;;;;7.18;5.32;;;5.10;99.90;;;;;;5050803;28;20045;-61
2022/05/02 00:04:33;;;;;;;7.85;5.43;;;;;;;;;;5051221;28;20076;-61
2022/05/02 00:06:59;;;;;;;6.88;5.18;;;;;;;;;;5050926;28;20095;-60
2022/05/02 00:09:25;;;;;;;8.15;6.05;;;;;;;;;;5050919;28;20033;-60
2022/05/02 00:11:51;;;;;;;9.43;5.57;;;5.00;99.90;;;;;;5052278;28;20114;-61
2022/05/02 00:14:17;;;;;;;7.18;5.63;;;;;;;;;;5050730;28;20136;-61
2022/05/02 00:16:48;;;;;;;5.93;5.15;;;;;;;;;;5050983;28;20083;-61
2022/05/02 00:19:14;;;;;;;7.28;5.65;;;;;;;;;;5071699;28;20041;-60
2022/05/02 00:21:40;;;;;;;6.63;5.30;;;;;;;;;;5056150;28;20124;-61
2022/05/02 00:24:07;;;;;;;8.18;5.32;;;5.00;99.90;;;;;;5055859;28;20040;-60
2022/05/02 00:26:33;;;;;;;7.43;5.65;;;;;;;;;;5054548;28;20033;-60
2022/05/02 00:28:58;;;;;;;7.10;5.32;;;4.90;99.90;;;;;;5054655;28;20098;-60
2022/05/02 00:31:24;;;;;;;6.43;5.70;;;;;;;;;;5054681;28;20041;-60
2022/05/02 00:33:50;;;;;;;7.65;5.53;;;;;;;;;;5055534;28;20043;-60
2022/05/02 00:36:16;;;;;;;8.57;6.07;;;4.90;99.90;;;;;;5055323;28;20491;-59
2022/05/02 00:38:42;;;;;;;8.02;5.72;;;;;;;;;;5055520;28;20033;-60
2022/05/02 00:41:08;;;;;;;9.02;5.80;;;;;;;;;;5055527;28;20049;-60
2022/05/02 00:43:34;;;;;;;6.88;5.10;;;;;;;;;;5053982;28;20041;-61
2022/05/02 00:46:00;;;;;;;8.38;5.18;;;;;;;;;;5041866;28;20403;-59
2022/05/02 00:48:28;;;;;;;6.80;5.13;;;;;;;;;;5051269;28;20151;-60
2022/05/02 00:50:54;;;;;;;6.18;5.25;;;;;;;;;;5034101;28;20120;-59
2022/05/02 00:53:22;;;;;;;6.85;5.00;;;4.70;99.90;;;;;;5034259;28;20069;-59
2022/05/02 00:55:48;;;;;;;7.85;4.18;;;;;;;;;;5035216;28;20045;-60
2022/05/02 00:58:15;;;;;;;6.88;4.68;;;4.40;99.90;;;;;;5035331;28;20095;-60
2022/05/02 01:00:41;;;;;;;6.30;4.95;;;4.50;99.90;;;;;;5035359;28;20049;-60
2022/05/02 01:03:10;;;;;;;7.47;5.28;;;4.20;99.90;;;;;;5050263;28;20407;-61
2022/05/02 01:07:08;;;;;;;8.27;6.78;;;;;;;;;;5033793;28;20073;-60
2022/05/02 01:08:28;;;;;;;8.65;6.55;;;4.80;99.90;;;;;;5050549;28;20132;-60
2022/05/02 01:10:55;;;;;;;10.25;6.50;;;4.70;99.90;;;;;;5050406;28;20064;-61
2022/05/02 01:13:32;;;;;;;7.18;5.80;;;;;;;;;;5034721;28;20084;-60
2022/05/02 01:15:58;;;;;;;6.65;5.30;;;;;;;;;;5050085;28;20132;-59
2022/05/02 01:18:24;;;;;;;7.40;5.60;;;;;;;;;;5050271;28;20121;-60
2022/05/02 01:20:49;;;;;;;9.18;5.80;;;;;;;;;;5034649;28;20044;-60
2022/05/02 01:23:15;;;;;;;7.82;5.75;;;4.70;99.90;;;;;;5033211;28;20128;-60
2022/05/02 01:25:41;;;;;;;7.55;5.57;;;;;;;;;;5034662;28;20041;-60
2022/05/02 01:28:11;;;;;;;10.18;6.07;;;;;;;;;;5034544;28;20124;-61
2022/05/02 01:30:36;;;;;;;8.02;5.13;;;4.70;99.90;;;;;;5049183;28;20041;-60
2022/05/02 01:33:02;;;;;;;10.43;6.03;;;;;;;;;;5049835;28;20075;-59
2022/05/02 01:35:28;;;;;;;6.88;5.82;;;;;;;;;;5050195;28;20406;-60
2022/05/02 01:37:54;;;;;;;8.43;5.15;;;4.60;99.90;;;;;;5050059;28;20098;-59
2022/05/02 01:40:19;;;;;;;6.88;5.55;;;;;;;;;;5034512;28;20045;-60
2022/05/02 01:42:45;;;;;;;6.47;4.97;;;4.40;99.90;;;;;;5034288;28;20048;-60
2022/05/02 01:45:11;;;;;;;7.35;5.80;;;;;;;;;;5022331;28;20564;-60
2022/05/02 01:47:37;;;;;;;7.15;6.20;;;4.20;99.90;;;;;;5054128;28;20601;-60
2022/05/02 01:50:03;;;;;;;8.32;5.85;;;;;;;;;;5054297;28;20037;-61
2022/05/02 01:52:29;;;;;;;8.68;5.60;;;;;;;;;;5054001;28;20037;-61
2022/05/02 01:54:54;;;;;;;7.80;5.90;;;;;;;;;;5054124;28;20047;-60
2022/05/02 01:57:20;;;;;;;6.95;5.20;;;;;;;;;;5053872;28;20037;-60
2022/05/02 01:59:46;;;;;;;10.13;5.85;;;;;;;;;;5054151;28;20037;-61
2022/05/02 02:02:12;;;;;;;8.45;5.18;;;;;;;;;;5052698;28;20067;-61
2022/05/02 02:07:23;;;;;;;6.47;5.38;;;;;;;;;;5054632;28;20037;-60
2022/05/02 02:09:48;;;;;;;8.45;5.38;;;4.30;99.90;;;;;;5053718;28;20036;-61
2022/05/02 02:12:14;;;;;;;7.95;5.35;;;;;;;;;;5052463;28;20056;-60
2022/05/02 02:14:40;;;;;;;6.40;5.28;;;;;;;;;;5052252;28;20049;-60
2022/05/02 02:17:06;;;;;;;9.02;5.75;;;;;;;;;;5052691;28;20086;-60
2022/05/02 02:19:32;;;;;;;9.07;6.75;;;4.00;99.90;;;;;;5052563;28;20064;-61
2022/05/02 02:22:16;;;;;;;7.50;5.80;;;;;;;;;;5052081;28;20045;-61
2022/05/02 02:24:43;;;;;;;8.80;6.60;;;4.00;99.90;;;;;;5053316;28;20079;-61
2022/05/02 02:27:09;;;;;;;8.25;6.18;;;;;;;;;;5053335;28;20395;-61
2022/05/02 02:29:35;;;;;;;8.80;6.15;;;4.20;99.90;;;;;;5053581;28;20044;-61
2022/05/02 02:32:00;;;;;;;6.57;5.30;;;4.20;99.90;;;;;;5052427;28;20048;-60
2022/05/02 02:34:26;;;;;;;8.35;5.82;;;4.20;99.90;;;;;;5052521;28;20068;-61
2022/05/02 02:36:52;;;;;;;7.40;5.85;;;;;;;;;;5051953;28;20048;-61
2022/05/02 02:39:17;;;;;;;8.20;6.38;;;4.30;99.90;;;;;;5053246;28;20414;-62
2022/05/02 02:41:43;;;;;;;11.05;6.35;;;4.20;99.90;;;;;;5051714;28;20099;-60
2022/05/02 02:44:09;;;;;;;7.60;5.75;;;;;;;;;;5052007;28;20091;-60
2022/05/02 02:46:34;;;;;;;8.25;5.65;;;;;;;;;;5048541;28;20041;-61
2022/05/02 02:49:00;;;;;;;8.60;6.40;;;;;;;;;;5042121;28;20042;-60
2022/05/02 02:51:26;;;;;;;9.70;6.03;;;;;;;;;;5048515;28;20049;-60
2022/05/02 02:53:52;;;;;;;8.07;5.93;;;;;;;;;;5031779;28;20068;-61
2022/05/02 02:56:18;;;;;;;9.82;6.53;;;;;;;;;;5048550;28;20124;-60
2022/05/02 02:58:44;;;;;;;8.80;5.40;;;;;;;;;;5033076;28;20040;-60
2022/05/02 03:01:10;;;;;;;8.45;5.90;;;;;;;;;;5031718;28;20033;-60
2022/05/02 03:03:36;;;;;;;9.90;6.43;;;;;;;;;;5032796;28;20045;-62
2022/05/02 03:06:02;;;;;;;8.85;5.80;;;;;;;;;;5015633;28;20056;-60
2022/05/02 03:08:34;;;;;;;8.60;6.18;;;2.90;99.90;;;;;;5032930;28;20034;-60
2022/05/02 03:11:00;;;;;;;9.63;6.82;;;;;;;;;;5031646;28;20131;-60
2022/05/02 03:13:26;;;;;;;8.80;6.22;;;;;;;;;;5048134;28;20065;-59
2022/05/02 03:15:52;;;;;;;10.23;6.15;;;;;;;;;;5048267;28;20061;-60
2022/05/02 03:18:18;;;;;;;8.43;6.32;;;3.20;99.90;;;;;;5031874;28;20045;-60
2022/05/02 03:20:44;;;;;;;9.68;6.28;;;;;;;;;;5032839;28;20041;-60
2022/05/02 03:23:10;;;;;;;7.60;6.38;;;;;;;;;;5032579;28;20471;-60
2022/05/02 03:25:35;;;;;;;7.00;5.80;;;3.30;99.90;;;;;;5032587;28;20042;-60
2022/05/02 03:28:01;;;;;;;10.02;6.55;;;;;;;;;;5031527;28;20037;-60
2022/05/02 03:30:27;;;;;;;7.82;5.82;;;;;;;;;;5032796;28;20049;-59
2022/05/02 03:32:53;;;;;;;6.68;6.00;;;3.20;99.90;;;;;;5031186;28;20103;-59
2022/05/02 03:35:18;;;;;;;7.78;5.22;;;3.20;99.90;;;;;;5032594;28;20042;-60
2022/05/02 03:37:44;;;;;;;6.55;5.35;;;;;;;;;;5032817;28;20407;-60
2022/05/02 03:40:10;;;;;;;7.78;5.75;;;3.40;99.90;;;;;;5047898;28;20046;-60
2022/05/02 03:42:37;;;;;;;7.55;5.40;;;;;;;;;;5032665;28;20038;-60
2022/05/02 03:45:04;;;;;;;7.25;5.80;;;;;;;;;;5037652;28;20487;-60
2022/05/02 03:47:30;;;;;;;10.77;7.43;;;;;;;;;;5052586;28;20037;-60
2022/05/02 03:49:56;;;;;;;10.43;7.65;;;;;;;;;;5052498;28;20040;-60
2022/05/02 03:52:21;;;;;;;10.90;7.32;;;3.10;99.90;;;;;;5069159;28;20045;-60
2022/05/02 03:54:47;;;;;;;11.82;7.80;;;3.10;99.90;;;;;;5056331;28;20179;-58
2022/05/02 03:57:12;;;;;;;12.65;8.27;;;3.20;99.90;;;;;;5056361;28;20076;-59
2022/05/02 03:59:38;;;;;;;19.25;9.63;;;2.90;99.90;;;;;;5055027;28;20043;-60
2022/05/02 04:02:04;;;;;;;11.63;8.50;;;3.00;99.90;;;;;;5055154;28;20124;-60
2022/05/02 04:04:30;;;;;;;13.40;9.05;;;;;;;;;;5054850;28;20041;-59
2022/05/02 04:06:56;;;;;;;11.13;7.88;;;3.00;99.90;;;;;;5054996;28;20132;-60
2022/05/02 04:09:22;;;;;;;13.85;7.93;;;3.10;99.90;;;;;;5054877;28;20514;-60
2022/05/02 04:11:48;;;;;;;15.40;9.10;;;3.10;99.90;;;;;;5052124;28;20044;-60
2022/05/02 04:14:14;;;;;;;13.52;8.32;;;;;;;;;;5050924;28;20049;-62
2022/05/02 04:16:40;;;;;;;12.93;8.18;;;2.90;99.90;;;;;;5053874;28;20094;-61
2022/05/02 04:19:06;;;;;;;10.30;7.03;;;;;;;;;;5055085;28;20041;-61
2022/05/02 04:21:31;;;;;;;9.13;7.22;;;3.00;99.90;;;;;;5053046;28;20110;-61
2022/05/02 04:23:57;;;;;;;11.75;7.93;;;;;;;;;;5052216;28;20037;-62
2022/05/02 04:26:23;;;;;;;11.30;6.15;;;3.10;99.90;;;;;;5051094;28;20050;-62
2022/05/02 04:28:49;;;;;;;9.13;6.05;;;3.10;99.90;;;;;;5050781;28;20094;-62
2022/05/02 04:31:15;;;;;;;9.10;6.57;;;;;;;;;;5040806;28;20040;-63
2022/05/02 04:33:41;;;;;;;9.48;7.30;;;;;;;;;;5051367;28;20189;-63
2022/05/02 04:36:07;;;;;;;10.65;7.55;;;;;;;;;;5067396;28;20057;-63
2022/05/02 04:38:33;;;;;;;10.48;8.02;;;;;;;;;;5067474;28;20415;-62
2022/05/02 04:40:59;;;;;;;13.40;8.20;;;;;;;;;;5066296;28;20055;-63
2022/05/02 04:43:26;;;;;;;12.18;7.95;;;;;;;;;;5047597;28;20456;-62
2022/05/02 04:45:52;;;;;;;16.23;7.97;;;;;;;;;;5051340;28;20047;-63
2022/05/02 04:48:18;;;;;;;14.55;8.00;;;3.20;99.90;;;;;;5051583;28;20434;-62
2022/05/02 04:50:44;;;;;;;10.38;7.65;;;;;;;;;;5051901;28;20048;-62
2022/05/02 04:53:09;;;;;;;12.35;9.05;;;;;;;;;;5051295;28;20062;-62
2022/05/02 04:55:35;;;;;;;14.93;8.82;;;;;;;;;;5050176;28;20403;-62
2022/05/02 04:58:01;;;;;;;10.88;8.45;;;3.40;99.90;;;;;;5050353;28;20045;-62
2022/05/02 05:00:27;;;;;;;10.35;8.30;;;;;;;;;;5049577;28;20040;-63
2022/05/02 05:02:53;;;;;;;10.50;7.68;;;;;;;;;;5049929;28;20065;-63
2022/05/02 05:05:19;;;;;;;10.38;8.15;;;;;;;;;;5048560;28;20059;-63
2022/05/02 05:07:45;;;;;;;10.32;8.77;;;;;;;;;;5050285;28;20177;-63
2022/05/02 05:10:11;;;;;;;9.77;8.20;;;3.70;99.90;;;;;;5049875;28;20052;-62
2022/05/02 05:13:07;;;;;;;10.15;7.60;;;3.70;99.90;;;;;;5050924;28;20486;-62
2022/05/02 05:18:37;;;;;;;14.75;10.10;;;;;;;;;;5047880;28;20048;-62
2022/05/02 05:21:08;;;;;;;14.07;9.85;;;;;;;;;;5084707;28;20603;-63
2022/05/02 05:23:55;;;;;;;12.32;8.85;;;3.50;99.90;;;;;;5059613;28;20041;-62
2022/05/02 05:26:33;;;;;;;13.45;9.43;;;;;;;;;;5051286;28;20564;-62
2022/05/02 05:29:10;;;;;;;14.55;9.25;;;;;;;;;;5051443;28;20558;-62
2022/05/02 05:31:52;;;;;;;13.13;9.80;;;4.10;99.90;;;;;;5050852;28;20100;-62
2022/05/02 05:34:32;;;;;;;15.10;9.50;;;4.10;99.90;;;;;;5032057;28;20602;-62
2022/05/02 05:37:08;;;;;;;11.00;8.55;;;;;;;;;;5031807;28;20037;-62
2022/05/02 05:39:45;;;;;;;13.30;9.15;;;;;;;;;;5031994;28;20044;-62
2022/05/02 05:42:15;;;;;;;15.20;11.10;;;;;;;;;;5031320;28;20453;-62
2022/05/02 05:44:54;;;;;;;18.90;11.32;;;;;;;;;;5033921;28;20041;-62
2022/05/02 05:47:32;;;;;;;16.60;11.38;;;5.60;99.90;;;;;;5050200;28;20067;-62
2022/05/02 05:50:24;;;;;;;15.20;11.60;;;;;;;;;;5045656;28;20049;-63
2022/05/02 05:53:24;;;;;;;18.75;12.13;;;6.20;99.90;;;;;;5066194;28;20684;-62
2022/05/02 05:56:23;;;;;;;17.80;12.27;;;6.70;99.90;;;;;;5050147;28;20048;-62
2022/05/02 05:59:08;;;;;;;16.02;11.23;;;7.30;99.90;;;;;;5050340;28;20502;-62
2022/05/02 06:01:47;;;;;;;16.60;12.48;;;7.50;99.90;;;;;;5051331;28;20086;-62
2022/05/02 06:04:15;;;;;;;16.77;11.77;;;7.80;99.90;;;;;;5051189;28;20083;-62
2022/05/02 06:06:41;;;;;;;14.02;10.98;;;8.10;99.90;;;;;;5051118;28;20036;-62
2022/05/02 06:09:10;;;;;;;14.75;10.70;;;8.50;99.90;;;;;;5050114;28;20037;-62
2022/05/02 06:11:39;;;;;;;15.73;11.57;;;8.50;99.90;;;;;;5050725;28;20466;-62
2022/05/02 06:14:06;;;;;;;15.73;11.07;;;9.10;99.90;;;;;;5040684;28;20128;-61
2022/05/02 06:19:24;;;;;;;14.13;11.75;;;9.60;99.90;;;;;;5036009;28;20049;-61
2022/05/02 06:21:50;;;;;;;16.63;11.60;;;;;;;;;;5041189;28;20131;-63
2022/05/02 06:24:16;;;;;;;16.95;11.32;;;;;;;;;;5028761;28;20106;-63
2022/05/02 06:26:43;;;;;;;15.95;10.68;;;11.40;99.90;;;;;;5027488;28;20376;-63
2022/05/02 06:29:10;;;;;;;13.27;10.75;;;10.50;99.90;;;;;;5026364;28;20128;-62
2022/05/02 06:31:37;;;;;;;14.45;10.60;;;10.80;99.90;;;;;;5024084;28;20551;-61
2022/05/02 06:34:04;;;;;;;13.27;10.48;;;11.00;99.90;;;;;;5024798;28;20418;-62
2022/05/02 06:36:39;;;;;;;14.57;10.48;;;9.90;99.90;;;;;;5024060;28;20583;-61
2022/05/02 06:39:23;;;;;;;12.55;10.30;;;11.40;99.90;;;;;;5027018;28;20044;-61
2022/05/02 06:42:29;;;;;;;14.50;10.45;;;11.70;99.90;;;;;;5025826;28;20503;-62
2022/05/02 06:45:20;;;;;;;12.82;9.98;;;11.70;99.90;;;;;;5025591;28;20521;-62
2022/05/02 06:47:46;;;;;;;11.15;8.98;;;;;;;;;;5024563;28;20079;-63
2022/05/02 06:50:17;;;;;;;11.57;9.80;;;11.50;99.90;;;;;;5025838;28;20241;-63
2022/05/02 06:53:07;;;;;;;12.68;9.20;;;11.80;99.90;;;;;;5023717;28;20873;-64
2022/05/02 06:55:51;;;;;;;10.93;8.02;;;11.80;99.90;;;;;;5040729;28;20055;-64
2022/05/02 06:58:31;;;;;;;11.13;9.00;;;12.00;99.90;;;;;;5025688;28;20045;-62
2022/05/02 07:01:25;;;;;;;12.40;9.02;;;11.90;99.90;;;;;;5023465;28;20045;-63
2022/05/02 07:04:19;;;;;;;11.00;9.20;;;12.00;99.90;;;;;;4979545;28;20634;-62
2022/05/02 07:07:13;;;;;;;9.73;8.20;;;11.70;99.90;;;;;;5025450;28;20094;-62
2022/05/02 07:09:46;;;;;;;12.98;9.10;;;11.80;99.90;;;;;;5023307;28;20203;-62
2022/05/02 07:12:22;;;;;;;9.80;8.30;;;12.00;99.90;;;;;;5039254;28;20103;-62
2022/05/02 07:15:08;;;;;;;11.23;8.18;;;11.70;99.90;;;;;;5024819;28;20048;-62
2022/05/02 07:17:43;;;;;;;12.68;9.48;;;11.90;99.90;;;;;;5021618;28;20131;-63
2022/05/02 07:20:24;;;;;;;14.75;9.93;;;11.40;99.90;;;;;;5022847;28;20087;-63
2022/05/02 07:23:22;;;;;;;11.23;9.13;;;11.80;99.90;;;;;;5036224;28;20041;-62
2022/05/02 07:25:57;;;;;;;11.57;9.27;;;11.60;99.90;;;;;;5020620;28;20423;-62
2022/05/02 07:28:45;;;;;;;16.63;11.65;;;11.90;99.90;;;;;;5025058;28;20037;-62
2022/05/02 07:31:13;;;;;;;11.85;9.23;;;11.70;99.90;;;;;;5021521;28;20120;-64
2022/05/02 07:33:40;;;;;;;12.68;9.32;;;11.70;99.90;;;;;;5021753;28;20060;-62
2022/05/02 07:36:06;;;;;;;11.88;8.85;;;12.00;99.90;;;;;;5026552;28;20181;-63
2022/05/02 07:38:34;;;;;;;12.18;9.00;;;11.80;99.90;;;;;;5026445;28;20044;-63
2022/05/02 07:41:22;;;;;;;13.75;8.85;;;12.10;99.90;;;;;;5027180;28;20566;-62
2022/05/02 07:43:50;;;;;;;13.00;8.90;;;12.30;99.90;;;;;;5027537;28;20052;-63
2022/05/02 07:46:21;;;;;;;15.00;9.68;;;12.10;99.90;;;;;;5030291;28;20045;-63
2022/05/02 07:48:50;;;;;;;13.73;9.23;;;12.30;99.90;;;;;;5029171;28;20056;-63
2022/05/02 07:51:16;;;;;;;14.65;9.00;;;;;;;;;;5034082;28;20044;-63
2022/05/02 07:53:43;;;;;;;15.05;9.50;;;12.10;99.90;;;;;;5032906;28;20064;-63
2022/05/02 07:56:10;;;;;;;11.90;8.73;;;12.40;99.90;;;;;;5034641;28;20499;-63
2022/05/02 07:58:44;;;;;;;13.25;8.63;;;12.30;99.90;;;;;;5032773;28;20091;-62
2022/05/02 08:01:10;;;;;;;10.80;8.02;;;;;;;;;;5034063;28;20053;-63
2022/05/02 08:03:36;;;;;;;13.95;8.40;;;;;;;;;;5036119;28;20053;-63
2022/05/02 08:06:33;;;;;;;15.32;8.40;;;12.60;99.90;;;;;;5035350;28;20453;-63
2022/05/02 08:09:06;;;;;;;13.85;8.75;;;12.50;99.90;;;;;;5035532;28;20857;-63
2022/05/02 08:11:56;;;;;;;16.52;9.38;;;12.50;99.90;;;;;;5033170;28;20056;-63
2022/05/02 08:14:42;;;;;;;13.98;8.98;;;12.80;99.90;;;;;;5035214;28;20079;-63
2022/05/02 08:17:19;;;;;;;16.55;9.88;;;12.60;99.90;;;;;;5035072;28;20084;-63
2022/05/02 08:19:54;;;;;;;11.07;9.07;;;12.90;99.90;;;;;;5033904;28;20049;-63
2022/05/02 08:28:47;;;;;;;12.75;8.57;;;13.00;99.90;;;;;;5032676;28;20049;-63
2022/05/02 08:31:20;;;;;;;12.35;8.15;;;13.00;99.90;;;;;;5033193;28;20164;-63
2022/05/02 08:33:59;;;;;;;13.38;8.52;;;13.10;99.90;;;;;;5033149;28;21476;-63
2022/05/02 08:36:36;;;;;;;12.95;8.55;;;13.20;99.90;;;;;;5033018;28;20048;-63
2022/05/02 08:39:06;;;;;;;11.10;9.13;;;13.10;99.90;;;;;;5052218;28;20053;-63
2022/05/02 08:41:57;;;;;;;14.25;9.65;;;13.30;99.90;;;;;;5035108;28;20098;-63
2022/05/02 08:44:43;;;;;;;12.95;8.57;;;13.40;99.90;;;;;;5052245;28;20084;-63
2022/05/02 08:47:47;;;;;;;12.35;8.40;;;13.60;99.90;;;;;;5036940;28;20049;-63
2022/05/02 08:50:48;;;;;;;13.45;8.90;;;13.70;99.90;;;;;;5036345;28;20049;-63
2022/05/02 08:53:45;;;;;;;12.90;7.75;;;13.80;99.90;;;;;;5037551;28;20045;-62
2022/05/02 08:56:11;;;;;;;13.73;8.00;;;;;;;;;;5036279;28;20396;-63
2022/05/02 08:59:15;;;;;;;14.25;7.90;;;14.00;99.90;;;;;;5035214;28;20063;-62
2022/05/02 09:01:41;;;;;;;10.27;7.55;;;;;;;;;;5037580;28;20060;-62
2022/05/02 09:04:29;;;;;;;11.75;9.15;;;14.30;99.90;;;;;;5036691;28;20049;-62
2022/05/02 09:07:28;;;;;;;13.88;7.88;;;14.50;99.90;;;;;;5036105;28;20657;-62
2022/05/02 09:10:17;;;;;;;11.70;7.60;;;14.30;99.90;;;;;;5036729;28;20487;-62
2022/05/02 09:13:36;;;;;;;13.13;8.18;;;14.60;99.90;;;;;;5037415;28;20087;-63
2022/05/02 09:16:39;;;;;;;11.43;7.65;;;14.70;99.90;;;;;;4978461;28;20100;-63
2022/05/02 09:19:36;;;;;;;12.70;8.35;;;14.90;99.90;;;;;;5037109;28;20127;-64
2022/05/02 09:22:39;;;;;;;12.43;7.85;;;15.00;99.90;;;;;;5037755;28;20053;-63
2022/05/02 09:25:10;;;;;;;10.45;7.80;;;15.10;99.90;;;;;;5036664;28;20053;-62
2022/05/02 09:27:37;;;;;;;13.40;7.10;;;15.30;99.90;;;;;;5037108;28;20131;-64
2022/05/02 09:30:35;;;;;;;12.88;7.90;;;15.20;99.90;;;;;;5037887;28;20066;-62
2022/05/02 09:33:14;;;;;;;12.70;7.60;;;15.10;99.90;;;;;;5035556;28;20102;-62
2022/05/02 09:36:08;;;;;;;9.25;7.32;;;15.10;99.90;;;;;;5036943;28;20120;-63
2022/05/02 09:38:51;;;;;;;10.00;7.22;;;15.30;99.90;;;;;;5020736;28;20171;-63
2022/05/02 09:41:54;;;;;;;7.97;6.82;;;15.30;99.90;;;;;;5036106;28;20052;-64
2022/05/02 09:50:34;;;;;;;8.20;6.70;;;15.70;99.90;;;;;;5034105;28;20057;-63
2022/05/02 09:53:45;;;;;;;14.35;6.60;;;15.80;99.90;;;;;;5036059;28;20086;-63
2022/05/02 09:56:40;;;;;;;9.45;6.18;;;15.90;99.90;;;;;;4989876;28;20106;-63
2022/05/02 09:59:07;;;;;;;6.75;5.88;;;;;;;;;;5034480;28;20498;-63
2022/05/02 10:01:34;;;;;;;7.32;6.13;;;16.00;99.90;;;;;;5035343;28;20187;-64
2022/05/02 10:04:37;;;;;;;10.50;5.63;;;16.30;99.90;;;;;;5036330;28;20049;-62
2022/05/02 10:07:10;;;;;;;9.18;6.18;;;16.40;99.90;;;;;;5033994;28;20048;-65
2022/05/02 10:09:37;;;;;;;10.02;5.82;;;;;;;;;;5034359;28;20060;-64
2022/05/02 10:12:39;;;;;;;8.02;6.35;;;16.40;99.90;;;;;;5035670;28;20423;-64
2022/05/02 10:15:23;;;;;;;7.88;6.05;;;16.50;99.90;;;;;;5034476;28;20071;-65
2022/05/02 10:18:19;;;;;;;10.43;6.90;;;16.40;99.90;;;;;;5036522;28;20055;-64
2022/05/02 10:21:14;;;;;;;8.23;5.68;;;16.50;99.90;;;;;;5036709;28;20060;-64
2022/05/02 10:23:43;;;;;;;7.00;6.05;;;16.50;99.90;;;;;;5036181;28;20052;-65
2022/05/02 10:26:33;;;;;;;8.60;5.57;;;16.60;99.90;;;;;;5035382;28;20048;-64
2022/05/02 10:28:58;;;;;;;6.75;5.20;;;16.70;99.90;;;;;;5036557;28;20056;-63
2022/05/02 10:31:33;;;;;;;9.23;6.22;;;16.80;99.90;;;;;;5035369;28;20491;-63
2022/05/02 10:34:00;;;;;;;;;;;16.90;99.90;;;;;;5032902;28;20049;-64
2022/05/02 10:36:36;;;;;;;8.68;5.72;;;16.90;99.90;;;;;;5033814;28;20027;-63
2022/05/02 10:39:23;;;;;;;7.80;6.10;;;16.80;99.90;;;;;;5032973;28;20045;-62
2022/05/02 10:41:51;;;;;;;6.32;5.32;;;16.80;99.90;;;;;;5032452;28;20103;-65
2022/05/02 10:44:18;;;;;;;6.50;5.55;;;16.80;99.90;;;;;;5031528;28;20076;-64
2022/05/02 10:46:46;;;;;;;7.90;5.63;;;16.80;99.90;;;;;;5033876;28;20045;-63
2022/05/02 10:49:26;;;;;;;8.23;5.22;;;17.00;99.90;;;;;;5033815;28;20495;-64
2022/05/02 10:52:06;;;;;;;8.25;5.57;;;17.00;99.90;;;;;;5032590;28;20045;-64
2022/05/02 10:54:40;;;;;;;9.77;5.65;;;17.20;99.90;;;;;;5034228;28;20041;-66
2022/05/02 10:57:34;;;;;;;11.20;6.15;;;17.20;99.90;;;;;;5033497;28;20164;-65
2022/05/02 11:00:06;;;;;;;8.32;6.20;;;17.00;99.90;;;;;;5027398;28;20550;-64
2022/05/02 11:02:50;;;;;;;7.50;5.82;;;17.00;99.90;;;;;;5035082;28;20045;-65
2022/05/02 11:05:17;;;;;;;8.93;5.78;;;17.10;99.90;;;;;;5033136;28;20457;-65
2022/05/02 11:08:18;;;;;;;6.65;5.10;;;17.30;99.90;;;;;;5035943;28;20399;-64
2022/05/02 11:10:56;;;;;;;7.30;5.65;;;17.00;99.90;;;;;;5023323;28;20564;-64
2022/05/02 11:13:26;;;;;;;9.02;5.75;;;17.30;99.90;;;;;;5035677;28;20544;-66
2022/05/02 11:16:16;;;;;;;6.63;5.22;;;17.30;99.90;;;;;;5032817;28;20068;-66
2022/05/02 11:21:56;;;;;;;7.95;5.68;;;17.40;99.90;;;;;;5034174;28;20061;-65
2022/05/02 11:24:22;;;;;;;8.52;5.55;;;17.30;99.90;;;;;;5035474;28;20044;-64
2022/05/02 11:26:58;;;;;;;8.88;6.15;;;17.10;99.90;;;;;;5049069;28;20051;-64
2022/05/02 11:29:56;;;;;;;8.60;5.43;;;17.20;99.90;;;;;;5034130;28;20616;-64
2022/05/02 11:32:46;;;;;;;6.13;4.22;;;18.00;99.90;;;;;;5032956;28;20048;-64
2022/05/02 11:35:29;;;;;;;9.35;4.82;;;17.10;99.90;;;;;;5020328;28;20068;-63
2022/05/02 11:38:09;;;;;;;8.10;5.35;;;17.30;99.90;;;;;;5035051;28;20526;-64
2022/05/02 11:40:43;;;;;;;6.22;4.78;;;17.30;99.90;;;;;;5033267;28;20552;-64
2022/05/02 11:43:11;;;;;;;7.40;4.88;;;17.30;99.90;;;;;;5041060;28;20146;-64
2022/05/02 11:45:50;;;;;;;8.93;4.82;;;17.70;99.90;;;;;;5049911;28;20064;-64
2022/05/02 11:48:54;;;;;;;6.32;4.85;;;17.50;99.90;;;;;;5050286;28;20569;-64
2022/05/02 11:51:45;;;;;;;9.55;4.80;;;17.30;99.90;;;;;;5032691;28;20106;-65
2022/05/02 11:54:23;;;;;;;6.13;4.20;;;17.70;99.90;;;;;;5034357;28;20068;-65
2022/05/02 11:57:14;;;;;;;6.80;4.97;;;17.70;99.90;;;;;;5032696;28;20053;-64
2022/05/02 12:00:14;;;;;;;5.47;4.35;;;17.70;99.90;;;;;;5031599;28;20053;-64
2022/05/02 12:02:48;;;;;;;5.68;3.95;;;17.70;99.90;;;;;;4975644;28;20057;-64
2022/05/02 12:05:24;;;;;;;7.50;4.25;;;17.60;99.90;;;;;;5026643;28;20473;-64
2022/05/02 12:08:04;;;;;;;11.10;4.40;;;19.20;99.90;;;;;;5032835;28;20495;-66
2022/05/02 12:10:46;;;;;;;5.63;3.78;;;17.60;99.90;;;;;;5033034;28;20045;-64
2022/05/02 12:13:15;;;;;;;6.40;3.92;;;17.60;99.90;;;;;;5049588;28;20052;-64
2022/05/02 12:16:08;;;;;;;7.10;4.35;;;17.70;99.90;;;;;;5035638;28;20064;-65
2022/05/02 12:18:45;;;;;;;5.55;4.32;;;17.80;99.90;;;;;;5038322;28;20582;-65
2022/05/02 12:21:21;;;;;;;7.97;4.93;;;17.60;99.90;;;;;;5035684;28;20067;-64
2022/05/02 12:23:48;;;;;;;10.13;4.13;;;19.00;99.90;;;;;;5037644;28;20051;-67
2022/05/02 12:26:20;;;;;;;7.88;3.88;;;17.70;99.90;;;;;;5037991;28;20045;-65
2022/05/02 12:28:48;;;;;;;5.85;4.15;;;17.60;99.90;;;;;;5038472;28;20127;-65
2022/05/02 12:31:18;;;;;;;5.53;4.00;;;17.80;99.90;;;;;;5038351;28;20044;-64
2022/05/02 12:33:50;;;;;;;7.93;4.45;;;17.70;99.90;;;;;;5037037;28;20140;-64
2022/05/02 12:36:20;;;;;;;5.45;3.10;;;17.80;99.90;;;;;;5036103;28;20518;-64
2022/05/02 12:39:04;;;;;;;6.35;3.45;;;17.70;99.90;;;;;;5037030;28;20056;-64
2022/05/02 12:41:38;;;;;;;6.97;3.85;;;17.60;99.90;;;;;;5037537;28;20072;-64
2022/05/02 12:44:08;;;;;;;7.70;3.63;;;17.70;99.90;;;;;;5051293;28;20495;-64
2022/05/02 12:46:38;;;;;;;8.10;4.05;;;18.00;99.90;;;;;;5053915;28;20047;-65
2022/05/02 12:49:07;;;;;;;5.57;4.10;;;17.80;99.90;;;;;;5035995;28;20503;-65
2022/05/02 12:51:33;;;;;;;7.32;4.43;;;18.00;99.90;;;;;;5037811;28;20582;-65
2022/05/02 12:54:12;;;;;;;6.68;3.83;;;17.80;99.90;;;;;;5035455;28;20048;-66
2022/05/02 13:02:51;;;;;;;12.93;5.13;;;17.80;99.90;;;;;;5035938;28;20081;-65
2022/05/02 13:05:17;;;;;;;;;;;17.80;99.90;;;;;;5044368;28;20123;-65
2022/05/02 13:07:46;;;;;;;7.13;4.60;;;17.50;99.90;;;;;;5036264;28;19931;-66
2022/05/02 13:10:20;;;;;;;11.15;4.85;;;17.60;99.90;;;;;;5052398;28;20999;-65
2022/05/02 13:12:58;;;;;;;8.38;6.03;;;17.70;99.90;;;;;;5036757;28;20399;-67
2022/05/02 13:15:27;;;;;;;6.00;4.57;;;17.70;99.90;;;;;;5052313;28;20071;-66
2022/05/02 13:17:57;;;;;;;8.23;5.25;;;17.80;99.90;;;;;;5036323;28;20067;-66
2022/05/02 13:20:26;;;;;;;9.77;5.50;;;17.80;99.90;;;;;;5036548;28;20613;-65
2022/05/02 13:23:08;;;;;;;10.02;5.75;;;17.80;99.90;;;;;;5037239;28;20083;-66
2022/05/02 13:26:00;;;;;;;7.00;5.00;;;17.90;99.90;;;;;;5036301;28;20052;-66
2022/05/02 13:28:50;;;;;;;7.47;5.05;;;17.80;99.90;;;;;;5038048;28;20102;-65
2022/05/02 13:31:30;;;;;;;9.73;4.45;;;17.70;99.90;;;;;;5019883;28;20068;-65
2022/05/02 13:33:59;;;;;;;6.57;5.45;;;17.90;99.90;;;;;;5051774;28;20053;-64
2022/05/02 13:36:26;;;;;;;9.57;5.72;;;17.60;99.90;;;;;;5033215;28;20090;-64
2022/05/02 13:38:52;;;;;;;9.20;6.30;;;17.80;99.90;;;;;;5032459;28;20049;-65
2022/05/02 13:41:42;;;;;;;13.07;6.80;;;17.70;99.90;;;;;;5034652;28;20056;-65
2022/05/02 13:44:09;;;;;;;6.75;5.40;;;18.00;99.90;;;;;;5034902;28;20063;-65
2022/05/02 13:46:52;;;;;;;7.97;5.57;;;17.60;99.90;;;;;;5036594;28;20059;-65
2022/05/02 13:49:33;;;;;;;8.57;5.65;;;17.50;99.90;;;;;;5037088;28;20128;-66
2022/05/02 13:52:16;;;;;;;11.90;6.57;;;17.40;99.90;;;;;;5037892;28;20072;-64
2022/05/02 13:54:52;;;;;;;7.65;5.15;;;17.40;99.90;;;;;;5035653;28;20041;-65
2022/05/02 13:57:38;;;;;;;5.80;4.97;;;17.50;99.90;;;;;;5035338;28;20080;-64
2022/05/02 14:03:25;;;;;;;7.55;4.90;;;17.80;99.90;;;;;;5034482;28;21262;-64
2022/05/02 14:08:25;;;;;;;7.75;4.75;;;18.10;99.90;;;;;;5035252;28;20547;-65
2022/05/02 14:10:57;;;;;;;5.93;4.88;;;18.10;99.90;;;;;;5034743;28;20041;-64
2022/05/02 14:13:23;;;;;;;9.70;5.07;;;18.10;99.90;;;;;;5034323;28;20296;-64
2022/05/02 14:15:49;;;;;;;7.93;5.00;;;18.20;99.90;;;;;;5035463;28;20048;-64
2022/05/02 14:18:18;;;;;;;8.15;5.53;;;18.20;99.90;;;;;;5035921;28;20049;-64
2022/05/02 14:20:45;;;;;;;6.53;4.65;;;18.10;99.90;;;;;;5035053;28;20053;-64
2022/05/02 14:23:12;;;;;;;7.28;4.05;;;18.10;99.90;;;;;;5051037;28;20087;-64
2022/05/02 14:25:42;;;;;;;5.40;4.30;;;18.20;99.90;;;;;;5035333;28;20043;-64
2022/05/02 14:28:08;;;;;;;6.07;3.78;;;18.40;99.90;;;;;;5044173;28;20072;-64
2022/05/02 14:30:38;;;;;;;5.43;3.70;;;18.20;99.90;;;;;;5033354;28;20562;-64